Terminal Aerodrome Forecast
Issued by NWS

Home | Current Version | Previous Version | Text Only | Print | Product List | Glossary On
Versions: 1 2 3 4 5 6 7 8 9 10 11 12 13 14 15 16 17 18 19 20 21
000
FTUS41 KBGM 181100
TAFRME
TAF
KRME 181124Z 1812/1912 11010KT P6SM SCT250
     FM181400 12010G16KT P6SM SCT100 BKN250
     FM182100 12010G16KT P6SM BKN100
     FM190000 VRB04KT P6SM OVC050
     FM190400 VRB04KT P6SM -SHRA OVC050=

USA.gov is the U.S. government's official web portal to all federal, state and local government web resources and services.